WSSL

Seletar Airport

Seletar, Singapore
TAF AMD WSSL 210800Z 2108/2212 20007KT 9999 FEW018CB SCT020 TEMPO 2123/2202 3000 TSRA FEW012CB BKN015
Issued Valid From Valid To
Jul-21 @ 08:00 UTC
(2 hours ago)
Jul-21 @ 08:00 UTC
(2 hours ago)
Jul-22 @ 12:00 UTC
(-1 days ago)
Jul-21 @ 08:00 to Jul-22 @ 12:00
TAF AMD WSSL 210800Z 2108/2212 20007KT 9999 FEW018CB SCT020
Wind Visibility Clouds
200° at 7 knots 10,000+ meters
  • Few at 1,800' AGL
  • Scattered at 2,000' AGL
Temporary Jul-21 @ 23:00 to Jul-22 @ 02:00
TEMPO 2123/2202 3000 TSRA FEW012CB BKN015
Visibility Clouds Conditions
2,993 meters
  • Few at 1,200' AGL
  • Broken at 1,500' AGL
  • Thunderstorm
  • Rain
TAF AMD WSSL 210800Z 2108/2212 20007KT 9999 FEW018CB SCT020 TEMPO 2123/2202 3000 TSRA FEW012CB BKN015
Issued Jul-21 @ 08:00 UTC
(2 hours ago)
Valid From Jul-21 @ 08:00 UTC
(2 hours ago)
Valid To Jul-22 @ 12:00 UTC
(-1 days ago)
Jul-21 @ 08:00 - Jul-22 @ 12:00
Wind Visibility
200° at 7 knots 10,000+ meters
Clouds
  • Few at 1,800' AGL
  • Scattered at 2,000' AGL
Temporary Jul-21 @ 23:00 - Jul-22 @ 02:00
Clouds
  • Few at 1,200' AGL
  • Broken at 1,500' AGL
Conditions
  • Thunderstorm
  • Rain